sensor_id;sensor_type;location;lat;lon;timestamp;pressure;altitude;pressure_sealevel;temperature;humidity
15646;BME280;7922;43.622;1.476;2023-11-18T00:00:26;101185.84;;;7.88;100.00
15646;BME280;7922;43.622;1.476;2023-11-18T00:02:52;101175.38;;;7.79;100.00
15646;BME280;7922;43.622;1.476;2023-11-18T00:05:17;101204.94;;;8.07;100.00
15646;BME280;7922;43.622;1.476;2023-11-18T00:07:43;101203.94;;;8.16;100.00
15646;BME280;7922;43.622;1.476;2023-11-18T00:10:08;101205.66;;;8.20;100.00
15646;BME280;7922;43.622;1.476;2023-11-18T00:12:34;101204.84;;;8.15;100.00
15646;BME280;7922;43.622;1.476;2023-11-18T00:15:03;101190.75;;;8.17;100.00
15646;BME280;7922;43.622;1.476;2023-11-18T00:17:30;101179.47;;;8.05;100.00
15646;BME280;7922;43.622;1.476;2023-11-18T00:19:56;101191.75;;;8.06;100.00
15646;BME280;7922;43.622;1.476;2023-11-18T00:22:21;101156.81;;;7.88;100.00
15646;BME280;7922;43.622;1.476;2023-11-18T00:24:46;101174.31;;;7.95;100.00
15646;BME280;7922;43.622;1.476;2023-11-18T00:27:11;101201.41;;;8.08;100.00
15646;BME280;7922;43.622;1.476;2023-11-18T00:29:37;101192.47;;;8.18;100.00
15646;BME280;7922;43.622;1.476;2023-11-18T00:32:02;101167.94;;;8.13;100.00
15646;BME280;7922;43.622;1.476;2023-11-18T00:34:27;101180.94;;;8.26;100.00
15646;BME280;7922;43.622;1.476;2023-11-18T00:36:53;101160.00;;;8.13;100.00
15646;BME280;7922;43.622;1.476;2023-11-18T00:39:18;101153.88;;;8.11;100.00
15646;BME280;7922;43.622;1.476;2023-11-18T00:41:43;101156.56;;;8.07;100.00
15646;BME280;7922;43.622;1.476;2023-11-18T00:44:09;101116.44;;;7.80;100.00
15646;BME280;7922;43.622;1.476;2023-11-18T00:46:34;101154.94;;;7.95;100.00
15646;BME280;7922;43.622;1.476;2023-11-18T00:48:59;101145.25;;;7.97;100.00
15646;BME280;7922;43.622;1.476;2023-11-18T00:51:24;101118.94;;;7.92;100.00
15646;BME280;7922;43.622;1.476;2023-11-18T00:53:50;101149.53;;;8.06;100.00
15646;BME280;7922;43.622;1.476;2023-11-18T00:56:15;101148.63;;;8.10;100.00
15646;BME280;7922;43.622;1.476;2023-11-18T00:58:41;101153.81;;;8.16;100.00
15646;BME280;7922;43.622;1.476;2023-11-18T01:01:06;101114.41;;;8.04;100.00
15646;BME280;7922;43.622;1.476;2023-11-18T01:03:31;101141.41;;;8.23;100.00
15646;BME280;7922;43.622;1.476;2023-11-18T01:05:57;101142.31;;;8.20;100.00
15646;BME280;7922;43.622;1.476;2023-11-18T01:08:22;101132.72;;;8.14;100.00
15646;BME280;7922;43.622;1.476;2023-11-18T01:10:47;101142.06;;;8.37;100.00
15646;BME280;7922;43.622;1.476;2023-11-18T01:13:12;101155.94;;;8.53;100.00
15646;BME280;7922;43.622;1.476;2023-11-18T01:15:38;101141.09;;;8.46;100.00
15646;BME280;7922;43.622;1.476;2023-11-18T01:18:03;101141.16;;;8.42;100.00
15646;BME280;7922;43.622;1.476;2023-11-18T01:20:28;101157.81;;;8.44;100.00
15646;BME280;7922;43.622;1.476;2023-11-18T01:22:54;101106.28;;;8.17;100.00
15646;BME280;7922;43.622;1.476;2023-11-18T01:25:19;101123.97;;;8.09;100.00
15646;BME280;7922;43.622;1.476;2023-11-18T01:27:44;101159.75;;;8.32;100.00
15646;BME280;7922;43.622;1.476;2023-11-18T01:30:10;101142.28;;;8.22;100.00
15646;BME280;7922;43.622;1.476;2023-11-18T01:32:35;101119.66;;;8.04;100.00
15646;BME280;7922;43.622;1.476;2023-11-18T01:35:01;101135.47;;;8.07;100.00
15646;BME280;7922;43.622;1.476;2023-11-18T01:37:26;101149.63;;;7.98;100.00
15646;BME280;7922;43.622;1.476;2023-11-18T01:39:51;101131.34;;;7.86;100.00
15646;BME280;7922;43.622;1.476;2023-11-18T01:42:17;101125.25;;;7.81;100.00
15646;BME280;7922;43.622;1.476;2023-11-18T01:44:42;101120.06;;;7.75;100.00
15646;BME280;7922;43.622;1.476;2023-11-18T01:47:07;101099.09;;;7.62;100.00
15646;BME280;7922;43.622;1.476;2023-11-18T01:49:35;101096.53;;;7.59;100.00
15646;BME280;7922;43.622;1.476;2023-11-18T01:52:01;101104.59;;;7.45;100.00
15646;BME280;7922;43.622;1.476;2023-11-18T01:54:26;101105.31;;;7.55;100.00
15646;BME280;7922;43.622;1.476;2023-11-18T01:56:53;101112.31;;;7.61;100.00
15646;BME280;7922;43.622;1.476;2023-11-18T01:59:18;101148.19;;;7.72;100.00
15646;BME280;7922;43.622;1.476;2023-11-18T02:01:47;101118.50;;;7.57;100.00
15646;BME280;7922;43.622;1.476;2023-11-18T02:04:14;101094.06;;;7.42;100.00
15646;BME280;7922;43.622;1.476;2023-11-18T02:06:39;101106.28;;;7.50;100.00
15646;BME280;7922;43.622;1.476;2023-11-18T02:09:04;101102.72;;;7.54;100.00
15646;BME280;7922;43.622;1.476;2023-11-18T02:11:32;101141.16;;;7.73;100.00
15646;BME280;7922;43.622;1.476;2023-11-18T02:14:01;101136.81;;;7.69;100.00
15646;BME280;7922;43.622;1.476;2023-11-18T02:16:26;101154.38;;;7.71;100.00
15646;BME280;7922;43.622;1.476;2023-11-18T02:18:52;101144.69;;;7.72;100.00
15646;BME280;7922;43.622;1.476;2023-11-18T02:21:18;101114.97;;;7.58;100.00
15646;BME280;7922;43.622;1.476;2023-11-18T02:23:44;101138.66;;;7.64;100.00
15646;BME280;7922;43.622;1.476;2023-11-18T02:26:09;101124.66;;;7.57;100.00
15646;BME280;7922;43.622;1.476;2023-11-18T02:28:34;101139.47;;;7.66;100.00
15646;BME280;7922;43.622;1.476;2023-11-18T02:31:22;101143.78;;;7.73;100.00
15646;BME280;7922;43.622;1.476;2023-11-18T02:34:07;101100.22;;;7.43;100.00
15646;BME280;7922;43.622;1.476;2023-11-18T02:36:39;101137.72;;;7.68;100.00
15646;BME280;7922;43.622;1.476;2023-11-18T02:39:12;101129.78;;;7.71;100.00
15646;BME280;7922;43.622;1.476;2023-11-18T02:41:39;101084.38;;;7.46;100.00
15646;BME280;7922;43.622;1.476;2023-11-18T02:44:06;101106.19;;;7.57;100.00
15646;BME280;7922;43.622;1.476;2023-11-18T02:46:32;101072.94;;;7.44;100.00
15646;BME280;7922;43.622;1.476;2023-11-18T02:48:57;101079.91;;;7.51;100.00
15646;BME280;7922;43.622;1.476;2023-11-18T02:51:22;101106.91;;;7.71;100.00
15646;BME280;7922;43.622;1.476;2023-11-18T02:53:47;101074.56;;;7.57;100.00
15646;BME280;7922;43.622;1.476;2023-11-18T02:56:13;101107.69;;;7.78;100.00
15646;BME280;7922;43.622;1.476;2023-11-18T02:58:38;101087.50;;;7.76;100.00
15646;BME280;7922;43.622;1.476;2023-11-18T03:01:04;101076.25;;;7.61;100.00
15646;BME280;7922;43.622;1.476;2023-11-18T03:03:29;101088.53;;;7.64;100.00
15646;BME280;7922;43.622;1.476;2023-11-18T03:05:54;101109.44;;;7.81;100.00
15646;BME280;7922;43.622;1.476;2023-11-18T03:08:19;101095.25;;;7.88;100.00
15646;BME280;7922;43.622;1.476;2023-11-18T03:10:45;101048.94;;;7.65;100.00
15646;BME280;7922;43.622;1.476;2023-11-18T03:13:10;101077.78;;;7.81;100.00
15646;BME280;7922;43.622;1.476;2023-11-18T03:15:35;101078.69;;;7.77;100.00
15646;BME280;7922;43.622;1.476;2023-11-18T03:18:01;101080.50;;;7.73;100.00
15646;BME280;7922;43.622;1.476;2023-11-18T03:20:26;101050.16;;;7.40;100.00
15646;BME280;7922;43.622;1.476;2023-11-18T03:22:51;101076.31;;;7.57;100.00
15646;BME280;7922;43.622;1.476;2023-11-18T03:25:18;101086.84;;;7.60;100.00
15646;BME280;7922;43.622;1.476;2023-11-18T03:27:43;101081.63;;;7.54;100.00
15646;BME280;7922;43.622;1.476;2023-11-18T03:30:09;101078.16;;;7.52;100.00
15646;BME280;7922;43.622;1.476;2023-11-18T03:32:35;101024.88;;;7.27;100.00
15646;BME280;7922;43.622;1.476;2023-11-18T03:35:02;101040.59;;;7.34;100.00
15646;BME280;7922;43.622;1.476;2023-11-18T03:37:28;101066.00;;;7.38;100.00
15646;BME280;7922;43.622;1.476;2023-11-18T03:39:53;101060.72;;;7.37;100.00
15646;BME280;7922;43.622;1.476;2023-11-18T03:42:18;101024.97;;;7.17;100.00
15646;BME280;7922;43.622;1.476;2023-11-18T03:44:44;101032.88;;;7.19;100.00
15646;BME280;7922;43.622;1.476;2023-11-18T03:47:09;101017.94;;;7.15;100.00
15646;BME280;7922;43.622;1.476;2023-11-18T03:49:34;101042.47;;;7.23;100.00
15646;BME280;7922;43.622;1.476;2023-11-18T03:51:59;101045.97;;;7.22;100.00
15646;BME280;7922;43.622;1.476;2023-11-18T03:54:25;101051.16;;;7.30;100.00
15646;BME280;7922;43.622;1.476;2023-11-18T03:56:50;101041.63;;;7.18;100.00
15646;BME280;7922;43.622;1.476;2023-11-18T03:59:15;101026.06;;;6.98;100.00
15646;BME280;7922;43.622;1.476;2023-11-18T04:01:41;101047.03;;;7.09;100.00
15646;BME280;7922;43.622;1.476;2023-11-18T04:04:06;101047.88;;;7.08;100.00
15646;BME280;7922;43.622;1.476;2023-11-18T04:06:31;101030.44;;;6.99;100.00
15646;BME280;7922;43.622;1.476;2023-11-18T04:08:57;101061.00;;;7.15;100.00
15646;BME280;7922;43.622;1.476;2023-11-18T04:11:22;101070.63;;;7.18;100.00
15646;BME280;7922;43.622;1.476;2023-11-18T04:13:47;101065.47;;;7.07;100.00
15646;BME280;7922;43.622;1.476;2023-11-18T04:16:13;101062.88;;;7.06;100.00
15646;BME280;7922;43.622;1.476;2023-11-18T04:18:39;101077.63;;;7.20;100.00
15646;BME280;7922;43.622;1.476;2023-11-18T04:21:05;101051.47;;;7.00;100.00
15646;BME280;7922;43.622;1.476;2023-11-18T04:23:30;101072.53;;;7.04;100.00
15646;BME280;7922;43.622;1.476;2023-11-18T04:25:55;101083.00;;;7.13;100.00
15646;BME280;7922;43.622;1.476;2023-11-18T04:28:21;101060.25;;;7.03;100.00
15646;BME280;7922;43.622;1.476;2023-11-18T04:30:46;101069.94;;;6.99;100.00
15646;BME280;7922;43.622;1.476;2023-11-18T04:33:11;101048.16;;;6.86;100.00
15646;BME280;7922;43.622;1.476;2023-11-18T04:35:37;101071.69;;;7.02;100.00
15646;BME280;7922;43.622;1.476;2023-11-18T04:38:02;101036.63;;;6.93;100.00
15646;BME280;7922;43.622;1.476;2023-11-18T04:40:27;101042.81;;;6.94;100.00
15646;BME280;7922;43.622;1.476;2023-11-18T04:42:52;101041.00;;;6.97;100.00
15646;BME280;7922;43.622;1.476;2023-11-18T04:45:18;101053.16;;;7.09;100.00
15646;BME280;7922;43.622;1.476;2023-11-18T04:47:43;101024.38;;;6.89;100.00
15646;BME280;7922;43.622;1.476;2023-11-18T04:50:09;101027.91;;;6.88;100.00
15646;BME280;7922;43.622;1.476;2023-11-18T04:52:35;101066.41;;;7.05;100.00
15646;BME280;7922;43.622;1.476;2023-11-18T04:55:00;101068.06;;;7.10;100.00
15646;BME280;7922;43.622;1.476;2023-11-18T04:57:25;101042.81;;;6.94;100.00
15646;BME280;7922;43.622;1.476;2023-11-18T04:59:51;101051.47;;;7.05;100.00
15646;BME280;7922;43.622;1.476;2023-11-18T05:02:16;101049.66;;;7.07;100.00
15646;BME280;7922;43.622;1.476;2023-11-18T05:04:41;101060.03;;;7.22;100.00
15646;BME280;7922;43.622;1.476;2023-11-18T05:07:06;101053.84;;;7.27;100.00
15646;BME280;7922;43.622;1.476;2023-11-18T05:09:32;101052.88;;;7.32;100.00
15646;BME280;7922;43.622;1.476;2023-11-18T05:11:58;101036.31;;;7.24;100.00
15646;BME280;7922;43.622;1.476;2023-11-18T05:14:23;101040.66;;;7.28;100.00
15646;BME280;7922;43.622;1.476;2023-11-18T05:16:48;101047.66;;;7.31;100.00
15646;BME280;7922;43.622;1.476;2023-11-18T05:19:14;101002.31;;;7.03;100.00
15646;BME280;7922;43.622;1.476;2023-11-18T05:21:39;101015.38;;;7.12;100.00
15646;BME280;7922;43.622;1.476;2023-11-18T05:24:05;101036.19;;;7.33;100.00
15646;BME280;7922;43.622;1.476;2023-11-18T05:26:30;101052.66;;;7.51;100.00
15646;BME280;7922;43.622;1.476;2023-11-18T05:28:55;101039.56;;;7.46;100.00
15646;BME280;7922;43.622;1.476;2023-11-18T05:31:21;101028.97;;;7.49;100.00
15646;BME280;7922;43.622;1.476;2023-11-18T05:33:46;101041.19;;;7.55;100.00
15646;BME280;7922;43.622;1.476;2023-11-18T05:36:11;101034.28;;;7.46;100.00
15646;BME280;7922;43.622;1.476;2023-11-18T05:38:36;101014.09;;;7.43;100.00
15646;BME280;7922;43.622;1.476;2023-11-18T05:41:02;101032.56;;;7.42;100.00
15646;BME280;7922;43.622;1.476;2023-11-18T05:43:30;101033.50;;;7.36;100.00
15646;BME280;7922;43.622;1.476;2023-11-18T05:45:55;101029.22;;;7.28;100.00
15646;BME280;7922;43.622;1.476;2023-11-18T05:48:21;101010.03;;;7.15;100.00
15646;BME280;7922;43.622;1.476;2023-11-18T05:50:46;101036.31;;;7.24;100.00
15646;BME280;7922;43.622;1.476;2023-11-18T05:53:11;101039.84;;;7.23;100.00
15646;BME280;7922;43.622;1.476;2023-11-18T05:55:37;101031.09;;;7.18;100.00
15646;BME280;7922;43.622;1.476;2023-11-18T05:58:02;101000.63;;;6.95;100.00
15646;BME280;7922;43.622;1.476;2023-11-18T06:00:27;100988.38;;;6.90;100.00
15646;BME280;7922;43.622;1.476;2023-11-18T06:02:52;101000.69;;;6.91;100.00
15646;BME280;7922;43.622;1.476;2023-11-18T06:05:18;101020.75;;;7.03;100.00
15646;BME280;7922;43.622;1.476;2023-11-18T06:07:43;101022.56;;;6.97;100.00
15646;BME280;7922;43.622;1.476;2023-11-18T06:10:08;101012.97;;;6.92;100.00
15646;BME280;7922;43.622;1.476;2023-11-18T06:12:34;101026.06;;;6.96;100.00
15646;BME280;7922;43.622;1.476;2023-11-18T06:14:59;101009.50;;;6.85;100.00
15646;BME280;7922;43.622;1.476;2023-11-18T06:17:24;101042.72;;;7.02;100.00
15646;BME280;7922;43.622;1.476;2023-11-18T06:19:50;100999.09;;;6.74;100.00
15646;BME280;7922;43.622;1.476;2023-11-18T06:22:15;101041.97;;;6.90;100.00
15646;BME280;7922;43.622;1.476;2023-11-18T06:24:41;101035.91;;;6.81;100.00
15646;BME280;7922;43.622;1.476;2023-11-18T06:27:06;101027.16;;;6.77;100.00
15646;BME280;7922;43.622;1.476;2023-11-18T06:29:31;101035.88;;;6.82;100.00
15646;BME280;7922;43.622;1.476;2023-11-18T06:31:57;101043.81;;;6.78;100.00
15646;BME280;7922;43.622;1.476;2023-11-18T06:34:22;101057.81;;;6.84;100.00
15646;BME280;7922;43.622;1.476;2023-11-18T06:36:47;101039.47;;;6.73;100.00
15646;BME280;7922;43.622;1.476;2023-11-18T06:39:13;101032.50;;;6.69;100.00
15646;BME280;7922;43.622;1.476;2023-11-18T06:41:38;101005.47;;;6.54;100.00
15646;BME280;7922;43.622;1.476;2023-11-18T06:44:03;101054.34;;;6.78;100.00
15646;BME280;7922;43.622;1.476;2023-11-18T06:46:30;101037.72;;;6.74;100.00
15646;BME280;7922;43.622;1.476;2023-11-18T06:48:55;101043.88;;;6.73;100.00
15646;BME280;7922;43.622;1.476;2023-11-18T06:51:21;101021.97;;;6.69;100.00
15646;BME280;7922;43.622;1.476;2023-11-18T06:53:47;101003.72;;;6.51;100.00
15646;BME280;7922;43.622;1.476;2023-11-18T06:56:12;101042.13;;;6.73;100.00
15646;BME280;7922;43.622;1.476;2023-11-18T06:58:39;101044.75;;;6.73;100.00
15646;BME280;7922;43.622;1.476;2023-11-18T07:01:04;101051.72;;;6.79;100.00
15646;BME280;7922;43.622;1.476;2023-11-18T07:03:29;101042.94;;;6.80;100.00
15646;BME280;7922;43.622;1.476;2023-11-18T07:05:54;101019.38;;;6.66;100.00
15646;BME280;7922;43.622;1.476;2023-11-18T07:08:20;101014.06;;;6.68;100.00
15646;BME280;7922;43.622;1.476;2023-11-18T07:10:45;101035.84;;;6.87;100.00
15646;BME280;7922;43.622;1.476;2023-11-18T07:13:10;101007.00;;;6.73;100.00
15646;BME280;7922;43.622;1.476;2023-11-18T07:15:36;101043.63;;;6.96;100.00
15646;BME280;7922;43.622;1.476;2023-11-18T07:18:01;101038.38;;;6.96;100.00
15646;BME280;7922;43.622;1.476;2023-11-18T07:20:27;101054.09;;;7.04;100.00
15646;BME280;7922;43.622;1.476;2023-11-18T07:22:52;101052.31;;;7.04;100.00
15646;BME280;7922;43.622;1.476;2023-11-18T07:25:17;101045.22;;;7.12;100.00
15646;BME280;7922;43.622;1.476;2023-11-18T07:27:43;101032.97;;;7.07;100.00
15646;BME280;7922;43.622;1.476;2023-11-18T07:30:08;101047.66;;;7.29;100.00
15646;BME280;7922;43.622;1.476;2023-11-18T07:32:34;101052.00;;;7.33;100.00
15646;BME280;7922;43.622;1.476;2023-11-18T07:34:59;101049.28;;;7.41;100.00
15646;BME280;7922;43.622;1.476;2023-11-18T07:37:24;101020.38;;;7.33;100.00
15646;BME280;7922;43.622;1.476;2023-11-18T07:39:49;101049.13;;;7.53;100.00
15646;BME280;7922;43.622;1.476;2023-11-18T07:42:15;101024.59;;;7.48;100.00
15646;BME280;7922;43.622;1.476;2023-11-18T07:44:40;101035.84;;;7.61;100.00
15646;BME280;7922;43.622;1.476;2023-11-18T07:47:06;101022.59;;;7.65;100.00
15646;BME280;7922;43.622;1.476;2023-11-18T07:49:33;101030.31;;;7.81;100.00
15646;BME280;7922;43.622;1.476;2023-11-18T07:51:58;101046.84;;;7.92;100.00
15646;BME280;7922;43.622;1.476;2023-11-18T07:54:24;101020.47;;;7.90;100.00
15646;BME280;7922;43.622;1.476;2023-11-18T07:56:50;101042.16;;;8.09;100.00
15646;BME280;7922;43.622;1.476;2023-11-18T07:59:16;101005.31;;;8.06;100.00
15646;BME280;7922;43.622;1.476;2023-11-18T08:01:41;101045.38;;;8.30;100.00
15646;BME280;7922;43.622;1.476;2023-11-18T08:04:07;101044.38;;;8.38;100.00
15646;BME280;7922;43.622;1.476;2023-11-18T08:06:32;101045.19;;;8.43;100.00
15646;BME280;7922;43.622;1.476;2023-11-18T08:08:57;101037.19;;;8.50;100.00
15646;BME280;7922;43.622;1.476;2023-11-18T08:11:22;101046.59;;;8.64;99.79
15646;BME280;7922;43.622;1.476;2023-11-18T08:13:48;101028.03;;;8.67;99.40
15646;BME280;7922;43.622;1.476;2023-11-18T08:16:13;101058.53;;;8.87;98.34
15646;BME280;7922;43.622;1.476;2023-11-18T08:18:38;101053.16;;;8.91;98.27
15646;BME280;7922;43.622;1.476;2023-11-18T08:21:04;101066.13;;;9.05;98.48
15646;BME280;7922;43.622;1.476;2023-11-18T08:23:29;101061.59;;;9.10;98.12
15646;BME280;7922;43.622;1.476;2023-11-18T08:25:55;101028.31;;;9.00;97.42
15646;BME280;7922;43.622;1.476;2023-11-18T08:28:21;101053.50;;;9.20;97.04
15646;BME280;7922;43.622;1.476;2023-11-18T08:30:46;101064.00;;;9.24;97.20
15646;BME280;7922;43.622;1.476;2023-11-18T08:33:11;101060.38;;;9.28;97.42
15646;BME280;7922;43.622;1.476;2023-11-18T08:35:36;101064.66;;;9.35;97.17
15646;BME280;7922;43.622;1.476;2023-11-18T08:38:02;101044.28;;;9.40;96.96
15646;BME280;7922;43.622;1.476;2023-11-18T08:40:27;101019.56;;;9.42;96.55
15646;BME280;7922;43.622;1.476;2023-11-18T08:42:53;101003.59;;;9.46;95.52
15646;BME280;7922;43.622;1.476;2023-11-18T08:45:19;101055.91;;;9.74;95.73
15646;BME280;7922;43.622;1.476;2023-11-18T08:47:45;101056.56;;;9.85;95.77
15646;BME280;7922;43.622;1.476;2023-11-18T08:50:12;101022.22;;;9.82;94.96
15646;BME280;7922;43.622;1.476;2023-11-18T08:52:38;101035.16;;;9.94;94.93
15646;BME280;7922;43.622;1.476;2023-11-18T08:55:04;101017.66;;;9.88;94.58
15646;BME280;7922;43.622;1.476;2023-11-18T08:57:29;101049.81;;;10.10;94.00
15646;BME280;7922;43.622;1.476;2023-11-18T08:59:54;101058.38;;;10.20;93.87
15646;BME280;7922;43.622;1.476;2023-11-18T09:02:20;101041.47;;;10.27;93.46
15646;BME280;7922;43.622;1.476;2023-11-18T09:04:45;101027.41;;;10.24;92.85
15646;BME280;7922;43.622;1.476;2023-11-18T09:07:10;101047.56;;;10.31;92.72
15646;BME280;7922;43.622;1.476;2023-11-18T09:09:36;101021.13;;;10.29;92.68
15646;BME280;7922;43.622;1.476;2023-11-18T09:12:01;101030.41;;;10.47;92.36
15646;BME280;7922;43.622;1.476;2023-11-18T09:14:26;101052.06;;;10.63;91.58
15646;BME280;7922;43.622;1.476;2023-11-18T09:16:52;101055.22;;;10.79;91.24
15646;BME280;7922;43.622;1.476;2023-11-18T09:19:18;101019.28;;;10.67;90.99
15646;BME280;7922;43.622;1.476;2023-11-18T09:21:43;101022.56;;;10.77;90.26
15646;BME280;7922;43.622;1.476;2023-11-18T09:24:08;101035.28;;;10.97;89.33
15646;BME280;7922;43.622;1.476;2023-11-18T09:26:34;101034.22;;;11.04;89.66
15646;BME280;7922;43.622;1.476;2023-11-18T09:28:59;101008.59;;;11.03;89.78
15646;BME280;7922;43.622;1.476;2023-11-18T09:31:24;101037.09;;;11.27;89.42
15646;BME280;7922;43.622;1.476;2023-11-18T09:33:50;101031.84;;;11.26;88.92
15646;BME280;7922;43.622;1.476;2023-11-18T09:36:15;101005.41;;;11.23;89.72
15646;BME280;7922;43.622;1.476;2023-11-18T09:38:40;101035.63;;;11.47;89.63
15646;BME280;7922;43.622;1.476;2023-11-18T09:41:10;101043.97;;;11.64;88.42
15646;BME280;7922;43.622;1.476;2023-11-18T09:43:39;101003.56;;;11.54;88.26
15646;BME280;7922;43.622;1.476;2023-11-18T09:46:06;101021.53;;;11.74;87.74
15646;BME280;7922;43.622;1.476;2023-11-18T09:48:32;101019.66;;;11.78;87.61
15646;BME280;7922;43.622;1.476;2023-11-18T09:50:59;100998.69;;;11.70;87.58
15646;BME280;7922;43.622;1.476;2023-11-18T09:53:26;101007.03;;;11.88;87.32
15646;BME280;7922;43.622;1.476;2023-11-18T09:55:57;100996.88;;;12.00;87.07
15646;BME280;7922;43.622;1.476;2023-11-18T09:58:24;101022.03;;;12.17;86.69
15646;BME280;7922;43.622;1.476;2023-11-18T10:00:51;101020.75;;;12.28;85.69
15646;BME280;7922;43.622;1.476;2023-11-18T10:03:22;101027.50;;;12.39;84.83
15646;BME280;7922;43.622;1.476;2023-11-18T10:05:47;101026.22;;;12.50;84.54
15646;BME280;7922;43.622;1.476;2023-11-18T10:08:13;101008.59;;;12.48;84.80
15646;BME280;7922;43.622;1.476;2023-11-18T10:10:39;101022.09;;;12.67;84.77
15646;BME280;7922;43.622;1.476;2023-11-18T10:13:04;101026.16;;;12.79;84.52
15646;BME280;7922;43.622;1.476;2023-11-18T10:15:30;101038.34;;;12.84;84.28
15646;BME280;7922;43.622;1.476;2023-11-18T10:17:57;101033.47;;;12.97;83.70
15646;BME280;7922;43.622;1.476;2023-11-18T10:20:23;101008.06;;;12.88;83.76
15646;BME280;7922;43.622;1.476;2023-11-18T10:23:11;101015.06;;;13.16;83.14
15646;BME280;7922;43.622;1.476;2023-11-18T10:25:41;100992.94;;;13.14;82.60
15646;BME280;7922;43.622;1.476;2023-11-18T10:28:23;101015.56;;;13.27;81.80
15646;BME280;7922;43.622;1.476;2023-11-18T10:30:50;101012.56;;;13.36;81.30
15646;BME280;7922;43.622;1.476;2023-11-18T10:33:17;101012.03;;;13.50;81.35
15646;BME280;7922;43.622;1.476;2023-11-18T10:35:52;100979.53;;;13.42;81.32
15646;BME280;7922;43.622;1.476;2023-11-18T10:38:18;101007.63;;;13.72;81.16
15646;BME280;7922;43.622;1.476;2023-11-18T10:40:44;101005.28;;;13.87;80.17
15646;BME280;7922;43.622;1.476;2023-11-18T10:43:10;100995.38;;;13.90;80.29
15646;BME280;7922;43.622;1.476;2023-11-18T10:45:38;100984.66;;;13.92;79.24
15646;BME280;7922;43.622;1.476;2023-11-18T10:48:05;100989.88;;;13.95;79.18
15646;BME280;7922;43.622;1.476;2023-11-18T10:50:30;100989.44;;;14.06;78.81
15646;BME280;7922;43.622;1.476;2023-11-18T10:52:55;100963.03;;;14.00;79.04
15646;BME280;7922;43.622;1.476;2023-11-18T10:55:21;100980.13;;;14.16;78.07
15646;BME280;7922;43.622;1.476;2023-11-18T10:57:46;100978.69;;;14.29;77.52
15646;BME280;7922;43.622;1.476;2023-11-18T11:00:12;100976.72;;;14.34;77.40
15646;BME280;7922;43.622;1.476;2023-11-18T11:02:37;100970.31;;;14.38;76.06
15646;BME280;7922;43.622;1.476;2023-11-18T11:05:03;100963.84;;;14.44;76.29
15646;BME280;7922;43.622;1.476;2023-11-18T11:07:29;100974.91;;;14.57;75.80
15646;BME280;7922;43.622;1.476;2023-11-18T11:09:56;100949.44;;;14.50;75.18
15646;BME280;7922;43.622;1.476;2023-11-18T11:12:23;100935.75;;;14.57;75.70
15646;BME280;7922;43.622;1.476;2023-11-18T11:14:59;100938.22;;;14.62;75.38
15646;BME280;7922;43.622;1.476;2023-11-18T11:17:27;100950.59;;;14.83;75.06
15646;BME280;7922;43.622;1.476;2023-11-18T11:20:06;100919.72;;;14.78;74.70
15646;BME280;7922;43.622;1.476;2023-11-18T11:22:38;100958.59;;;15.04;73.39
15646;BME280;7922;43.622;1.476;2023-11-18T11:25:14;100963.13;;;15.02;71.95
15646;BME280;7922;43.622;1.476;2023-11-18T11:27:53;100929.59;;;14.96;73.05
15646;BME280;7922;43.622;1.476;2023-11-18T11:30:23;100931.81;;;15.05;73.01
15646;BME280;7922;43.622;1.476;2023-11-18T11:32:54;100947.81;;;15.26;71.62
15646;BME280;7922;43.622;1.476;2023-11-18T11:35:31;100942.31;;;15.29;71.03
15646;BME280;7922;43.622;1.476;2023-11-18T11:37:59;100944.81;;;15.32;70.71
15646;BME280;7922;43.622;1.476;2023-11-18T11:40:26;100928.09;;;15.28;70.93
15646;BME280;7922;43.622;1.476;2023-11-18T11:42:52;100939.78;;;15.45;70.15
15646;BME280;7922;43.622;1.476;2023-11-18T11:45:18;100917.56;;;15.44;69.95
15646;BME280;7922;43.622;1.476;2023-11-18T11:47:43;100906.50;;;15.52;69.21
15646;BME280;7922;43.622;1.476;2023-11-18T11:50:15;100946.06;;;15.81;69.68
15646;BME280;7922;43.622;1.476;2023-11-18T11:52:46;100878.56;;;15.59;69.39
15646;BME280;7922;43.622;1.476;2023-11-18T11:55:22;100899.06;;;15.77;68.30
15646;BME280;7922;43.622;1.476;2023-11-18T11:57:51;100899.69;;;15.82;67.51
15646;BME280;7922;43.622;1.476;2023-11-18T12:00:16;100891.81;;;15.79;66.72
15646;BME280;7922;43.622;1.476;2023-11-18T12:02:51;100885.41;;;15.83;66.73
15646;BME280;7922;43.622;1.476;2023-11-18T12:05:17;100880.38;;;15.77;66.70
15646;BME280;7922;43.622;1.476;2023-11-18T12:07:42;100863.16;;;15.83;66.27
15646;BME280;7922;43.622;1.476;2023-11-18T12:10:08;100908.94;;;16.11;65.24
15646;BME280;7922;43.622;1.476;2023-11-18T12:12:34;100875.81;;;15.97;65.05
15646;BME280;7922;43.622;1.476;2023-11-18T12:14:59;100898.03;;;16.16;63.60
15646;BME280;7922;43.622;1.476;2023-11-18T12:17:25;100874.72;;;16.01;60.92
15646;BME280;7922;43.622;1.476;2023-11-18T12:19:51;100880.78;;;16.22;61.58
15646;BME280;7922;43.622;1.476;2023-11-18T12:22:20;100858.94;;;16.13;61.82
15646;BME280;7922;43.622;1.476;2023-11-18T12:25:39;100909.25;;;16.57;61.46
15646;BME280;7922;43.622;1.476;2023-11-18T12:27:57;100848.53;;;16.42;61.75
15646;BME280;7922;43.622;1.476;2023-11-18T12:35:22;100893.19;;;16.75;60.93
15646;BME280;7922;43.622;1.476;2023-11-18T12:40:53;100906.34;;;16.95;58.19
15646;BME280;7922;43.622;1.476;2023-11-18T12:49:02;100877.09;;;16.92;57.58
15646;BME280;7922;43.622;1.476;2023-11-18T12:51:27;100878.41;;;17.01;59.16
15646;BME280;7922;43.622;1.476;2023-11-18T12:53:53;100865.28;;;16.96;59.46
15646;BME280;7922;43.622;1.476;2023-11-18T12:56:19;100874.09;;;17.14;59.31
15646;BME280;7922;43.622;1.476;2023-11-18T12:58:46;100855.53;;;17.11;59.92
15646;BME280;7922;43.622;1.476;2023-11-18T13:01:11;100849.91;;;17.16;58.55
15646;BME280;7922;43.622;1.476;2023-11-18T13:03:36;100851.88;;;17.28;57.49
15646;BME280;7922;43.622;1.476;2023-11-18T13:06:02;100819.94;;;17.09;57.50
15646;BME280;7922;43.622;1.476;2023-11-18T13:08:27;100853.72;;;17.27;57.50